Time;durP1;ratioP1;P1;durP2;ratioP2;P2;SDS_P1;SDS_P2;PMS_P1;PMS_P2;Temp;Humidity;BMP_temperature;BMP_pressure;BME280_temperature;BME280_humidity;BME280_pressure;Samples;Min_cycle;Max_cycle;Signal;HPM_P1;HPM_P2
2022/10/29 04:05:40;;;;;;;3.30;3.00;;;13.20;99.90;;;;;;5067219;22;20593;-63
2022/10/29 04:08:06;;;;;;;4.23;3.53;;;13.20;99.90;;;;;;5033471;28;20489;-65
2022/10/29 04:10:31;;;;;;;6.30;4.67;;;13.20;99.90;;;;;;5033718;28;20268;-66
2022/10/29 04:12:57;;;;;;;6.03;3.17;;;13.20;99.90;;;;;;5032662;28;20174;-64
2022/10/29 04:15:23;;;;;;;6.70;3.20;;;13.20;99.90;;;;;;5032721;28;20228;-64
2022/10/29 04:17:51;;;;;;;8.43;3.77;;;13.20;99.90;;;;;;5032479;28;20462;-64
2022/10/29 04:20:17;;;;;;;5.60;3.43;;;13.30;99.90;;;;;;5033191;28;20644;-64
2022/10/29 04:22:42;;;;;;;4.10;3.70;;;13.30;99.90;;;;;;5033096;28;20406;-64
2022/10/29 04:25:08;;;;;;;5.87;3.20;;;13.40;99.90;;;;;;5033062;28;20186;-65
2022/10/29 04:27:34;;;;;;;6.83;4.20;;;13.40;99.90;;;;;;5033228;28;20175;-64
2022/10/29 04:30:00;;;;;;;4.83;3.23;;;13.40;99.90;;;;;;5033605;28;20412;-64
2022/10/29 04:32:26;;;;;;;3.63;3.33;;;13.40;99.90;;;;;;5032224;28;20435;-65
2022/10/29 04:34:52;;;;;;;4.80;3.70;;;13.40;99.90;;;;;;5030926;28;20565;-64
2022/10/29 04:37:17;;;;;;;3.83;3.43;;;13.40;99.90;;;;;;5033133;28;20525;-64
2022/10/29 04:39:43;;;;;;;6.30;3.57;;;13.30;99.90;;;;;;5033286;28;20303;-63
2022/10/29 04:42:08;;;;;;;3.57;3.23;;;13.30;99.90;;;;;;5033114;28;20531;-63
2022/10/29 04:44:34;;;;;;;3.90;3.50;;;13.20;99.90;;;;;;5032836;28;20196;-64
2022/10/29 04:47:00;;;;;;;3.90;3.40;;;13.20;99.90;;;;;;5033389;28;20181;-64
2022/10/29 04:49:25;;;;;;;3.90;3.50;;;13.20;99.90;;;;;;5032860;28;20501;-64
2022/10/29 04:51:51;;;;;;;5.33;4.43;;;13.20;99.90;;;;;;5032816;28;20227;-64
2022/10/29 04:54:16;;;;;;;3.80;3.00;;;13.20;99.90;;;;;;5032306;28;20700;-64
2022/10/29 04:56:42;;;;;;;8.07;3.37;;;13.20;99.90;;;;;;5033013;28;20239;-64
2022/10/29 04:59:08;;;;;;;5.97;4.00;;;13.20;99.90;;;;;;5032270;28;20173;-64
2022/10/29 05:01:33;;;;;;;6.07;3.53;;;13.20;99.90;;;;;;5040938;28;20183;-64
2022/10/29 05:03:59;;;;;;;3.77;3.47;;;13.20;99.90;;;;;;5032285;28;20170;-64
2022/10/29 05:06:24;;;;;;;4.90;3.40;;;13.20;99.90;;;;;;5032890;28;20228;-64
2022/10/29 05:08:50;;;;;;;5.40;3.60;;;13.20;99.90;;;;;;5032280;28;20279;-65
2022/10/29 05:11:15;;;;;;;3.20;2.90;;;13.20;99.90;;;;;;5031929;28;20177;-63
2022/10/29 05:13:42;;;;;;;3.57;3.27;;;13.20;99.90;;;;;;5031969;28;20177;-64
2022/10/29 05:16:08;;;;;;;4.93;4.07;;;13.20;99.90;;;;;;5032735;28;20243;-65
2022/10/29 05:18:36;;;;;;;5.40;4.90;;;13.10;99.90;;;;;;5032832;28;20411;-64
2022/10/29 05:21:01;;;;;;;4.03;3.60;;;13.10;99.90;;;;;;5032654;28;20184;-65
2022/10/29 05:23:27;;;;;;;3.90;3.30;;;13.10;99.90;;;;;;5031601;28;20432;-63
2022/10/29 05:25:54;;;;;;;4.20;3.10;;;13.10;99.90;;;;;;5032427;28;20280;-64
2022/10/29 05:28:22;;;;;;;3.70;3.40;;;13.00;99.90;;;;;;5032385;28;20292;-64
2022/10/29 05:30:50;;;;;;;5.50;3.37;;;13.00;99.90;;;;;;5032668;28;20415;-64
2022/10/29 05:33:22;;;;;;;6.37;4.00;;;12.90;99.90;;;;;;5014895;28;20431;-64
2022/10/29 05:35:48;;;;;;;4.87;3.60;;;12.90;99.90;;;;;;5032739;28;20555;-63
2022/10/29 05:38:14;;;;;;;4.20;3.00;;;12.80;99.90;;;;;;5032630;28;20375;-63
2022/10/29 05:40:41;;;;;;;3.93;3.10;;;12.80;99.90;;;;;;5034673;28;20763;-64
2022/10/29 05:43:07;;;;;;;4.80;2.87;;;12.80;99.90;;;;;;5035391;28;20424;-63
2022/10/29 05:45:33;;;;;;;3.43;3.13;;;12.70;99.90;;;;;;5036333;28;20486;-65
2022/10/29 05:48:01;;;;;;;5.40;3.93;;;12.70;99.90;;;;;;5036427;28;20408;-65
2022/10/29 05:50:28;;;;;;;3.57;3.27;;;12.70;99.90;;;;;;5035895;28;20455;-64
2022/10/29 05:53:03;;;;;;;3.83;3.40;;;12.70;99.90;;;;;;5034068;28;20433;-65
2022/10/29 05:55:30;;;;;;;3.60;3.30;;;12.60;99.90;;;;;;5038332;28;20813;-64
2022/10/29 05:57:57;;;;;;;6.87;3.53;;;12.60;99.90;;;;;;5012626;28;20980;-64
2022/10/29 06:00:23;;;;;;;9.97;3.30;;;12.60;99.90;;;;;;5018163;28;20427;-64
2022/10/29 06:02:48;;;;;;;5.03;3.33;;;12.50;99.90;;;;;;5034861;28;20531;-64
2022/10/29 06:05:14;;;;;;;6.10;3.60;;;12.50;99.90;;;;;;5035725;28;20454;-64
2022/10/29 06:07:39;;;;;;;3.80;2.83;;;12.40;99.90;;;;;;5036099;28;20679;-65
2022/10/29 06:10:06;;;;;;;3.93;3.50;;;12.40;99.90;;;;;;5035183;28;20185;-63
2022/10/29 06:12:32;;;;;;;4.37;3.13;;;12.40;99.90;;;;;;5017102;28;20189;-63
2022/10/29 06:14:58;;;;;;;6.77;3.33;;;12.40;99.90;;;;;;5034775;28;20450;-64
2022/10/29 06:17:23;;;;;;;4.23;3.60;;;12.40;99.90;;;;;;5035597;28;20458;-63
2022/10/29 06:19:49;;;;;;;14.90;7.53;;;12.40;99.90;;;;;;5035789;28;20406;-64
2022/10/29 06:22:14;;;;;;;7.17;5.60;;;12.30;99.90;;;;;;5035269;28;20189;-65
2022/10/29 06:24:40;;;;;;;4.90;3.70;;;12.30;99.90;;;;;;5034978;28;20560;-63
2022/10/29 06:27:05;;;;;;;3.63;3.23;;;12.30;99.90;;;;;;5048361;28;20181;-65
2022/10/29 06:29:31;;;;;;;4.83;3.37;;;12.30;99.90;;;;;;5048568;28;20211;-65
2022/10/29 06:31:57;;;;;;;4.33;3.93;;;12.30;99.90;;;;;;5030844;28;20181;-63
2022/10/29 06:34:22;;;;;;;4.87;4.13;;;12.40;99.90;;;;;;5047845;28;20215;-64
2022/10/29 06:36:48;;;;;;;5.27;4.00;;;12.40;99.90;;;;;;5048098;28;20207;-63
2022/10/29 06:39:13;;;;;;;7.97;4.37;;;12.50;99.90;;;;;;5048703;28;20262;-63
2022/10/29 06:41:39;;;;;;;5.87;4.67;;;12.50;99.90;;;;;;5048029;28;20176;-63
2022/10/29 06:44:05;;;;;;;6.23;4.07;;;12.50;99.90;;;;;;5041869;28;20209;-63
2022/10/29 06:46:32;;;;;;;4.70;4.30;;;12.60;99.90;;;;;;5034730;28;20252;-63
2022/10/29 06:48:58;;;;;;;5.33;4.87;;;12.60;99.90;;;;;;5033252;28;20190;-65
2022/10/29 06:51:24;;;;;;;3.77;3.37;;;12.70;99.90;;;;;;5033678;28;20433;-64
2022/10/29 06:53:49;;;;;;;6.07;4.30;;;12.80;99.90;;;;;;5034286;28;20192;-65
2022/10/29 06:56:15;;;;;;;4.80;4.33;;;12.80;99.90;;;;;;5035135;28;20197;-65
2022/10/29 06:58:40;;;;;;;4.43;3.83;;;12.90;99.90;;;;;;5035359;28;20201;-64
2022/10/29 07:01:06;;;;;;;5.00;4.30;;;13.00;99.90;;;;;;5034495;28;20181;-64
2022/10/29 07:03:31;;;;;;;10.17;5.60;;;13.10;99.90;;;;;;5044928;28;20176;-65
2022/10/29 07:05:58;;;;;;;10.60;5.00;;;13.20;99.90;;;;;;5035965;28;20206;-63
2022/10/29 07:08:24;;;;;;;7.30;4.60;;;13.20;99.90;;;;;;5034234;28;20205;-62
2022/10/29 07:10:51;;;;;;;11.63;3.67;;;13.30;99.90;;;;;;5016883;28;20906;-66
2022/10/29 07:13:17;;;;;;;11.83;4.60;;;13.40;99.90;;;;;;5045570;28;20529;-63
2022/10/29 07:15:42;;;;;;;4.67;4.20;;;13.40;99.90;;;;;;5048061;28;20573;-66
2022/10/29 07:18:09;;;;;;;4.97;3.90;;;13.50;99.90;;;;;;5047957;28;20325;-67
2022/10/29 07:20:39;;;;;;;7.00;4.77;;;13.60;99.90;;;;;;5047880;28;20258;-65
2022/10/29 07:23:04;;;;;;;4.60;4.13;;;13.80;99.90;;;;;;5044173;28;20560;-65
2022/10/29 07:25:31;;;;;;;5.30;4.80;;;13.90;99.90;;;;;;5045759;28;20468;-67
2022/10/29 07:28:05;;;;;;;6.17;4.00;;;14.10;99.90;;;;;;5047855;28;20173;-68
2022/10/29 07:30:31;;;;;;;5.57;3.90;;;14.40;99.90;;;;;;5047161;28;20418;-66
2022/10/29 07:32:57;;;;;;;4.57;3.67;;;14.60;99.90;;;;;;5058345;28;20420;-69
2022/10/29 07:35:22;;;;;;;5.13;4.63;;;14.80;99.90;;;;;;5058962;28;20495;-65
2022/10/29 07:37:48;;;;;;;4.30;3.90;;;15.20;99.90;;;;;;5046579;28;20330;-66
2022/10/29 07:40:13;;;;;;;5.00;3.77;;;15.60;99.90;;;;;;5046042;28;20185;-68
2022/10/29 07:42:39;;;;;;;8.80;3.70;;;16.20;99.90;;;;;;5046099;28;20224;-66
2022/10/29 07:45:05;;;;;;;5.70;3.73;;;16.60;99.90;;;;;;5028732;28;20596;-67
2022/10/29 07:47:31;;;;;;;4.57;4.27;;;17.00;99.90;;;;;;5047351;28;20178;-66
2022/10/29 07:49:57;;;;;;;4.50;3.47;;;17.50;99.90;;;;;;5046823;28;20435;-65
2022/10/29 07:52:23;;;;;;;4.23;3.47;;;18.00;99.90;;;;;;5043703;28;20408;-64
2022/10/29 07:54:48;;;;;;;4.20;3.40;;;18.40;99.90;;;;;;5046346;28;20197;-63
2022/10/29 07:57:14;;;;;;;4.60;3.67;;;18.90;99.90;;;;;;5042172;28;20423;-68
2022/10/29 07:59:40;;;;;;;3.87;3.47;;;19.40;99.90;;;;;;5035160;28;20188;-68
2022/10/29 08:02:09;;;;;;;4.90;3.43;;;20.00;99.90;;;;;;5046678;28;20409;-69
2022/10/29 08:04:35;;;;;;;3.67;3.27;;;20.70;99.90;;;;;;5046616;28;20190;-68
2022/10/29 08:07:00;;;;;;;3.93;3.53;;;21.40;99.90;;;;;;5046803;28;20689;-66
2022/10/29 08:09:26;;;;;;;6.30;4.10;;;22.00;99.90;;;;;;5046487;28;20180;-69
2022/10/29 08:11:52;;;;;;;4.50;3.83;;;22.60;99.90;;;;;;5046945;28;20383;-65
2022/10/29 08:14:17;;;;;;;7.00;3.60;;;23.20;99.90;;;;;;5045407;28;20287;-67
2022/10/29 08:16:43;;;;;;;4.23;3.83;;;23.70;99.90;;;;;;5046657;28;20217;-70
2022/10/29 08:19:08;;;;;;;6.70;3.60;;;24.00;99.20;;;;;;5046418;28;20361;-63
2022/10/29 08:21:35;;;;;;;7.60;3.43;;;24.00;99.00;;;;;;5046779;28;20207;-68
2022/10/29 08:24:01;;;;;;;6.03;3.13;;;24.00;98.80;;;;;;5046723;28;20187;-65
2022/10/29 08:26:26;;;;;;;4.00;3.60;;;24.00;98.80;;;;;;5029330;28;20551;-63
2022/10/29 08:28:52;;;;;;;6.20;3.77;;;24.10;98.30;;;;;;5046581;28;20244;-67
2022/10/29 08:31:18;;;;;;;3.83;3.33;;;24.10;98.40;;;;;;5046932;28;20172;-64
2022/10/29 08:33:46;;;;;;;5.00;2.93;;;24.00;98.20;;;;;;5046745;28;20215;-67
2022/10/29 08:36:12;;;;;;;4.80;3.30;;;23.90;97.80;;;;;;5046747;28;20487;-67
2022/10/29 08:38:37;;;;;;;6.70;4.70;;;23.60;97.90;;;;;;5047075;28;20431;-67
2022/10/29 08:41:33;;;;;;;4.40;4.00;;;23.20;98.60;;;;;;5046830;28;20177;-64
2022/10/29 08:44:17;;;;;;;3.97;3.50;;;22.80;99.20;;;;;;5026223;28;20221;-66
2022/10/29 08:46:47;;;;;;;7.70;4.10;;;22.50;99.80;;;;;;5046684;28;20388;-67
2022/10/29 08:49:18;;;;;;;6.47;4.50;;;22.40;99.90;;;;;;5046551;28;20407;-70
2022/10/29 08:52:04;;;;;;;5.07;4.13;;;22.30;99.90;;;;;;5046691;28;20588;-67
2022/10/29 08:54:34;;;;;;;6.63;4.80;;;22.30;99.90;;;;;;5046462;28;20435;-64
2022/10/29 08:57:12;;;;;;;4.03;3.63;;;22.50;99.60;;;;;;5046575;28;20472;-68
2022/10/29 08:59:45;;;;;;;6.50;4.10;;;22.70;99.70;;;;;;5046750;28;20383;-70
2022/10/29 09:02:17;;;;;;;9.87;5.60;;;22.90;99.80;;;;;;5046762;28;20403;-67
2022/10/29 09:04:42;;;;;;;5.97;4.70;;;23.10;99.30;;;;;;5046071;28;20424;-68
2022/10/29 09:07:28;;;;;;;5.20;4.70;;;23.20;99.40;;;;;;5046521;28;20484;-68
2022/10/29 09:10:14;;;;;;;7.27;6.00;;;23.20;99.00;;;;;;5046190;28;20190;-68
2022/10/29 09:13:01;;;;;;;9.10;5.30;;;23.30;98.40;;;;;;5045677;28;20491;-68
2022/10/29 09:15:49;;;;;;;8.23;5.20;;;23.20;98.80;;;;;;5048421;28;20399;-65
2022/10/29 09:18:54;;;;;;;9.57;4.90;;;23.40;98.70;;;;;;5049783;28;20399;-69
2022/10/29 09:21:22;;;;;;;7.30;5.17;;;24.00;98.20;;;;;;5033143;28;20519;-70
2022/10/29 09:24:07;;;;;;;8.00;4.70;;;24.80;97.50;;;;;;5050016;28;20405;-64
2022/10/29 09:26:59;;;;;;;5.00;4.30;;;25.50;96.10;;;;;;5050244;28;20431;-66
2022/10/29 09:29:34;;;;;;;9.23;4.57;;;26.50;94.50;;;;;;5031237;28;20429;-65
2022/10/29 09:32:15;;;;;;;4.70;4.23;;;27.30;93.20;;;;;;5049736;28;20395;-63
2022/10/29 09:34:55;;;;;;;4.70;4.20;;;27.90;91.80;;;;;;5049821;28;20412;-67
2022/10/29 09:37:34;;;;;;;6.60;5.07;;;28.40;91.00;;;;;;5033176;28;20451;-70
2022/10/29 09:40:03;;;;;;;6.60;5.57;;;28.90;89.20;;;;;;5049871;28;20556;-69
2022/10/29 09:42:37;;;;;;;6.17;4.37;;;29.20;87.20;;;;;;5049615;28;20641;-69
2022/10/29 09:45:09;;;;;;;5.33;4.93;;;29.40;85.10;;;;;;5049443;28;20514;-68
2022/10/29 09:47:52;;;;;;;4.30;4.00;;;29.50;86.10;;;;;;5039336;28;20488;-65
2022/10/29 09:50:57;;;;;;;5.13;4.63;;;29.30;85.90;;;;;;5049850;28;20401;-63
2022/10/29 09:53:22;;;;;;;4.50;3.20;;;29.30;85.40;;;;;;5011931;28;20508;-66
2022/10/29 09:55:54;;;;;;;6.10;3.80;;;29.30;86.10;;;;;;5029974;28;20429;-64
2022/10/29 09:58:25;;;;;;;3.23;2.97;;;29.40;83.20;;;;;;5029915;28;20317;-64
2022/10/29 10:00:52;;;;;;;4.20;3.37;;;29.50;82.90;;;;;;5029754;28;20484;-64
2022/10/29 10:03:28;;;;;;;5.10;3.40;;;29.60;83.00;;;;;;5046312;28;20421;-69
2022/10/29 10:06:08;;;;;;;4.17;3.50;;;29.70;83.10;;;;;;5049352;28;20414;-69
2022/10/29 10:08:55;;;;;;;4.23;3.50;;;30.00;81.80;;;;;;5049796;28;20425;-70
2022/10/29 10:11:21;;;;;;;4.83;3.77;;;29.90;81.40;;;;;;5042394;28;20517;-71
2022/10/29 10:13:56;;;;;;;4.27;3.87;;;30.00;80.60;;;;;;5048510;28;20453;-69
2022/10/29 10:16:25;;;;;;;5.00;3.97;;;29.90;80.80;;;;;;5049400;28;20727;-67
2022/10/29 10:18:51;;;;;;;5.97;3.10;;;29.90;81.10;;;;;;5049295;28;20427;-70
2022/10/29 10:21:28;;;;;;;3.53;3.23;;;29.80;81.40;;;;;;5050049;28;20416;-68
2022/10/29 10:23:56;;;;;;;5.70;3.90;;;29.90;80.80;;;;;;5035856;28;20173;-69
2022/10/29 10:26:40;;;;;;;3.40;2.70;;;30.00;80.60;;;;;;5048786;28;20506;-67
2022/10/29 10:29:20;;;;;;;4.43;2.77;;;30.00;79.10;;;;;;5049294;28;20413;-66
2022/10/29 10:31:55;;;;;;;3.73;2.80;;;30.10;78.30;;;;;;5048851;28;20490;-64
2022/10/29 10:34:22;;;;;;;3.47;3.17;;;30.20;78.20;;;;;;5031361;28;20456;-68
2022/10/29 10:37:09;;;;;;;3.30;2.73;;;30.20;77.90;;;;;;5048425;28;20427;-63
2022/10/29 10:39:40;;;;;;;3.30;2.83;;;30.20;78.70;;;;;;5049088;28;20412;-65
2022/10/29 10:42:16;;;;;;;3.60;2.90;;;30.30;79.20;;;;;;5048957;28;20376;-64
2022/10/29 10:44:51;;;;;;;3.30;3.00;;;30.30;75.80;;;;;;5048372;28;20432;-69
2022/10/29 10:47:23;;;;;;;4.80;3.63;;;30.30;74.60;;;;;;5047940;28;20428;-65
2022/10/29 10:49:49;;;;;;;3.93;3.63;;;30.20;75.10;;;;;;5031135;28;20657;-66
2022/10/29 10:52:29;;;;;;;5.80;2.80;;;30.00;76.10;;;;;;5030929;28;20415;-65
2022/10/29 10:55:04;;;;;;;3.63;2.80;;;29.50;77.30;;;;;;5048501;28;20424;-65
2022/10/29 10:57:41;;;;;;;4.17;2.77;;;29.20;79.10;;;;;;5048641;28;20491;-68
2022/10/29 11:00:19;;;;;;;3.03;2.73;;;28.80;78.50;;;;;;5049138;28;20383;-64
2022/10/29 11:02:45;;;;;;;4.70;2.67;;;28.30;78.60;;;;;;5048171;28;20552;-66
2022/10/29 11:05:23;;;;;;;3.90;2.57;;;28.00;80.20;;;;;;5047876;28;20439;-69
2022/10/29 11:08:05;;;;;;;11.27;4.70;;;27.70;81.60;;;;;;5048609;28;20181;-64
2022/10/29 11:10:54;;;;;;;7.47;2.80;;;27.20;83.20;;;;;;5048138;28;20642;-67
2022/10/29 11:13:23;;;;;;;3.40;3.10;;;26.70;85.30;;;;;;5048078;28;20436;-67
2022/10/29 11:16:35;;;;;;;4.20;2.40;;;26.40;86.90;;;;;;5048146;28;20533;-66
2022/10/29 11:19:13;;;;;;;5.97;2.43;;;26.10;87.60;;;;;;5060868;28;20435;-69
2022/10/29 11:22:10;;;;;;;4.73;2.50;;;25.80;87.60;;;;;;5048117;28;20381;-70
2022/10/29 11:25:03;;;;;;;4.13;2.60;;;25.40;89.10;;;;;;5047801;28;20470;-66
2022/10/29 11:27:40;;;;;;;7.83;2.77;;;25.20;90.60;;;;;;5047850;28;20410;-66
2022/10/29 11:30:10;;;;;;;3.37;2.40;;;25.00;90.70;;;;;;5047880;28;20422;-72
2022/10/29 11:33:13;;;;;;;3.83;2.73;;;24.80;91.70;;;;;;5047385;28;20704;-66
2022/10/29 11:36:08;;;;;;;5.30;2.70;;;24.50;91.70;;;;;;5047505;28;20490;-67
2022/10/29 11:38:47;;;;;;;9.07;2.73;;;24.50;92.30;;;;;;5039525;28;20414;-62
2022/10/29 11:41:22;;;;;;;3.80;2.90;;;24.40;92.40;;;;;;5047522;28;20445;-66
2022/10/29 11:43:47;;;;;;;3.20;2.90;;;24.40;92.90;;;;;;5047146;28;20413;-65
2022/10/29 11:46:38;;;;;;;2.90;2.70;;;24.40;93.00;;;;;;5047721;28;20564;-67
2022/10/29 11:49:46;;;;;;;4.67;3.10;;;24.30;93.10;;;;;;5047968;28;20249;-65
2022/10/29 11:52:31;;;;;;;5.97;2.60;;;24.30;93.00;;;;;;5047566;28;20417;-70
2022/10/29 11:55:18;;;;;;;3.07;2.77;;;24.30;93.10;;;;;;5047220;28;20433;-68
2022/10/29 11:57:55;;;;;;;3.30;3.00;;;24.40;93.30;;;;;;5047501;28;20481;-64
2022/10/29 12:00:23;;;;;;;2.93;2.70;;;24.40;93.00;;;;;;5047547;28;20398;-63
2022/10/29 12:03:07;;;;;;;3.40;2.60;;;24.40;93.10;;;;;;5047534;28;20512;-67
2022/10/29 12:05:52;;;;;;;4.70;3.47;;;24.50;93.20;;;;;;5047185;28;20486;-65
2022/10/29 12:08:27;;;;;;;6.70;3.13;;;24.50;93.60;;;;;;5046824;28;20413;-66
2022/10/29 12:11:20;;;;;;;5.47;4.10;;;24.40;93.80;;;;;;5047302;28;20462;-68
2022/10/29 12:14:24;;;;;;;4.60;3.23;;;24.40;94.00;;;;;;5046422;28;20392;-65
2022/10/29 12:17:03;;;;;;;9.03;3.20;;;24.40;94.00;;;;;;5030571;28;20479;-65
2022/10/29 12:19:32;;;;;;;3.87;2.63;;;24.40;94.10;;;;;;5044914;28;20593;-69
2022/10/29 12:22:03;;;;;;;3.60;3.30;;;24.40;94.00;;;;;;5046841;28;20488;-65
2022/10/29 12:24:47;;;;;;;5.93;3.00;;;24.40;93.90;;;;;;5046751;28;20420;-71
2022/10/29 12:27:20;;;;;;;2.80;2.60;;;24.40;93.20;;;;;;5046914;28;20384;-62
2022/10/29 12:30:04;;;;;;;4.37;2.87;;;24.50;93.20;;;;;;5046773;28;20472;-69
2022/10/29 12:32:57;;;;;;;4.73;3.50;;;24.50;93.50;;;;;;5046763;28;20408;-63
2022/10/29 12:36:08;;;;;;;6.20;3.07;;;24.60;93.70;;;;;;5046978;28;20541;-66
2022/10/29 12:38:41;;;;;;;4.90;3.30;;;24.70;93.40;;;;;;5046037;28;20414;-67
2022/10/29 12:41:19;;;;;;;6.00;3.10;;;24.80;93.60;;;;;;5027121;28;20399;-69
2022/10/29 12:43:45;;;;;;;8.30;3.17;;;24.80;93.30;;;;;;5026824;28;20368;-63
2022/10/29 12:46:11;;;;;;;4.57;2.70;;;24.90;93.30;;;;;;5026971;28;20461;-70
2022/10/29 12:48:55;;;;;;;4.90;3.53;;;24.90;93.20;;;;;;5028399;28;20383;-67
2022/10/29 12:51:39;;;;;;;6.30;3.10;;;24.90;93.10;;;;;;5047268;28;20174;-66
2022/10/29 12:54:16;;;;;;;5.70;2.90;;;24.90;93.10;;;;;;5053138;28;20399;-68
2022/10/29 12:56:43;;;;;;;4.57;3.40;;;24.90;93.20;;;;;;5053261;28;20703;-71
2022/10/29 12:59:23;;;;;;;6.07;3.03;;;24.90;93.40;;;;;;5053368;28;20423;-67
2022/10/29 13:01:52;;;;;;;10.03;3.53;;;24.90;93.50;;;;;;5035599;28;20638;-65
2022/10/29 13:04:27;;;;;;;3.20;2.90;;;24.80;93.60;;;;;;5053071;28;20414;-70
2022/10/29 13:07:21;;;;;;;8.10;4.30;;;24.90;93.40;;;;;;5061491;28;20405;-67
2022/10/29 13:09:47;;;;;;;3.83;3.50;;;24.80;94.00;;;;;;5053239;28;20534;-63
2022/10/29 13:12:33;;;;;;;4.60;3.80;;;24.80;94.30;;;;;;5053237;28;20410;-68
2022/10/29 13:15:09;;;;;;;6.10;4.47;;;24.80;93.60;;;;;;5052874;28;20231;-70
2022/10/29 13:17:38;;;;;;;4.00;3.60;;;24.80;94.10;;;;;;5053261;28;20440;-63
2022/10/29 13:20:21;;;;;;;4.83;2.53;;;24.80;94.30;;;;;;5035680;28;20420;-66
2022/10/29 13:22:56;;;;;;;2.97;2.67;;;24.90;94.30;;;;;;5053048;28;20404;-69
2022/10/29 13:25:37;;;;;;;2.50;2.30;;;24.90;94.30;;;;;;5053124;28;20428;-71
2022/10/29 13:28:28;;;;;;;3.30;3.00;;;24.90;94.40;;;;;;5035728;28;20408;-68
2022/10/29 13:31:00;;;;;;;3.40;2.27;;;24.90;94.50;;;;;;5053002;28;20412;-66
2022/10/29 13:33:26;;;;;;;4.27;3.20;;;24.80;94.60;;;;;;5052665;28;20404;-67
2022/10/29 13:35:59;;;;;;;4.03;3.27;;;24.80;95.10;;;;;;5053105;28;20479;-63
2022/10/29 13:38:53;;;;;;;2.97;2.53;;;24.80;95.20;;;;;;5052997;28;20170;-64
2022/10/29 13:41:38;;;;;;;5.90;2.43;;;24.80;95.20;;;;;;5053128;28;20445;-66
2022/10/29 13:44:21;;;;;;;2.77;2.57;;;24.80;95.00;;;;;;5052742;28;20473;-63
2022/10/29 13:47:01;;;;;;;3.13;2.63;;;24.80;95.20;;;;;;5053779;28;20497;-70
2022/10/29 13:49:33;;;;;;;6.20;3.27;;;24.70;95.60;;;;;;5053739;28;20416;-64
2022/10/29 13:52:05;;;;;;;6.50;2.80;;;24.70;95.40;;;;;;5053839;28;20392;-64
2022/10/29 13:54:39;;;;;;;3.53;3.03;;;24.70;95.40;;;;;;5053519;28;20413;-64
2022/10/29 13:57:44;;;;;;;3.13;2.83;;;24.70;95.60;;;;;;5054223;28;20486;-63
2022/10/29 14:00:09;;;;;;;4.63;2.97;;;24.70;96.00;;;;;;5052533;28;20417;-67
2022/10/29 14:02:41;;;;;;;3.27;2.53;;;24.60;95.90;;;;;;5049383;28;20383;-64
2022/10/29 14:05:30;;;;;;;3.50;3.20;;;24.60;96.00;;;;;;5031883;28;20222;-65
2022/10/29 14:08:02;;;;;;;5.60;3.10;;;24.60;96.10;;;;;;5049618;28;20408;-70
2022/10/29 14:10:38;;;;;;;4.80;3.10;;;24.60;96.40;;;;;;5049575;28;20417;-66
2022/10/29 14:13:10;;;;;;;8.13;3.60;;;24.60;96.60;;;;;;5049200;28;20888;-65
2022/10/29 14:15:38;;;;;;;5.70;3.37;;;24.50;97.00;;;;;;5049393;28;20396;-69
2022/10/29 14:18:25;;;;;;;3.37;2.80;;;24.50;97.30;;;;;;5049219;28;20439;-68
2022/10/29 14:20:59;;;;;;;5.80;2.97;;;24.50;97.60;;;;;;5049405;28;20372;-64
2022/10/29 14:23:26;;;;;;;3.37;3.07;;;24.40;98.20;;;;;;5049147;28;20408;-66
2022/10/29 14:25:54;;;;;;;3.73;3.43;;;24.40;98.00;;;;;;5049307;28;20395;-67
2022/10/29 14:28:25;;;;;;;6.47;4.40;;;24.40;98.10;;;;;;5049190;28;20511;-65
2022/10/29 14:31:04;;;;;;;6.57;5.20;;;24.50;98.30;;;;;;5049159;28;20401;-72
2022/10/29 14:33:32;;;;;;;11.00;6.53;;;24.50;98.20;;;;;;5048760;28;20541;-64
2022/10/29 14:36:14;;;;;;;5.33;4.73;;;24.50;97.80;;;;;;5048962;28;20399;-64
2022/10/29 14:39:02;;;;;;;6.40;5.63;;;24.50;97.50;;;;;;5049106;28;20420;-66
2022/10/29 14:41:30;;;;;;;8.93;6.47;;;24.50;97.30;;;;;;5041601;28;20416;-65
2022/10/29 14:44:15;;;;;;;8.63;7.67;;;24.50;97.00;;;;;;5048747;28;20676;-68
2022/10/29 14:46:42;;;;;;;7.03;5.20;;;24.40;96.70;;;;;;5048159;28;20425;-65
2022/10/29 14:49:19;;;;;;;8.07;4.57;;;24.40;96.40;;;;;;5048157;28;20411;-67
2022/10/29 14:52:06;;;;;;;4.67;3.83;;;24.30;96.00;;;;;;5048271;28;20492;-72
2022/10/29 14:54:35;;;;;;;5.73;4.00;;;24.20;96.00;;;;;;5048251;28;20472;-69
2022/10/29 14:57:05;;;;;;;8.30;4.93;;;24.10;95.90;;;;;;5048661;28;20438;-63
2022/10/29 14:59:34;;;;;;;7.00;5.60;;;24.00;95.90;;;;;;5031572;28;20389;-62
2022/10/29 15:02:03;;;;;;;8.57;6.13;;;23.90;96.20;;;;;;5048027;28;20682;-68
2022/10/29 15:04:29;;;;;;;6.77;5.50;;;23.80;96.40;;;;;;5048105;28;20411;-68
2022/10/29 15:07:18;;;;;;;8.40;5.87;;;23.70;96.50;;;;;;5048268;28;20444;-67
2022/10/29 15:09:48;;;;;;;5.53;4.57;;;23.60;96.60;;;;;;5045759;28;20672;-65
2022/10/29 15:12:21;;;;;;;6.27;5.30;;;23.50;96.40;;;;;;5046897;28;20464;-63
2022/10/29 15:14:48;;;;;;;5.00;4.50;;;23.50;96.40;;;;;;5029576;28;20427;-67
2022/10/29 15:17:28;;;;;;;6.43;4.97;;;23.40;96.40;;;;;;5048137;28;20451;-67
2022/10/29 15:20:00;;;;;;;4.87;4.40;;;23.20;96.40;;;;;;5025859;28;20391;-67
2022/10/29 15:22:34;;;;;;;6.77;5.10;;;23.20;96.60;;;;;;5048189;28;20383;-67
2022/10/29 15:25:02;;;;;;;7.63;6.70;;;23.10;96.60;;;;;;5047540;28;20450;-66
2022/10/29 15:27:28;;;;;;;13.17;6.93;;;23.00;96.80;;;;;;5047566;28;20427;-67
2022/10/29 15:29:54;;;;;;;8.30;6.60;;;22.90;96.90;;;;;;5047368;28;20493;-68
2022/10/29 15:32:20;;;;;;;7.50;5.70;;;22.80;96.80;;;;;;5047801;28;20395;-67
2022/10/29 15:34:49;;;;;;;9.77;5.87;;;22.70;97.30;;;;;;5047227;28;20558;-72
2022/10/29 15:37:17;;;;;;;7.17;6.47;;;22.50;97.30;;;;;;5047884;28;20209;-68
2022/10/29 15:39:58;;;;;;;7.87;6.13;;;22.50;97.40;;;;;;5047777;28;20379;-63
2022/10/29 15:42:31;;;;;;;7.00;6.10;;;22.30;97.50;;;;;;5047909;28;20644;-66
2022/10/29 15:45:06;;;;;;;10.80;5.50;;;22.20;97.70;;;;;;5047423;28;20430;-70
2022/10/29 15:47:33;;;;;;;5.37;4.03;;;22.10;97.90;;;;;;5047407;28;20432;-70
2022/10/29 15:49:59;;;;;;;4.33;3.53;;;22.00;97.70;;;;;;5047545;28;20429;-66
2022/10/29 15:52:36;;;;;;;8.63;3.60;;;22.00;97.90;;;;;;5047658;28;20373;-69
2022/10/29 15:55:12;;;;;;;10.87;6.00;;;22.00;98.10;;;;;;5046763;28;20208;-68
2022/10/29 15:57:38;;;;;;;4.90;4.00;;;21.90;98.20;;;;;;5047443;28;20485;-65
2022/10/29 16:00:10;;;;;;;9.07;4.00;;;21.80;98.20;;;;;;5047461;28;20384;-67
2022/10/29 16:02:35;;;;;;;7.73;4.80;;;21.70;98.40;;;;;;5046934;28;20448;-67
2022/10/29 16:05:01;;;;;;;12.23;4.03;;;21.70;98.60;;;;;;5029164;28;20425;-70
2022/10/29 16:07:26;;;;;;;8.70;3.53;;;21.50;98.90;;;;;;5047163;28;20188;-65
2022/10/29 16:09:55;;;;;;;6.07;4.20;;;21.40;99.20;;;;;;5047390;28;20185;-70
2022/10/29 16:12:21;;;;;;;4.23;3.20;;;21.30;99.40;;;;;;5047299;28;20191;-68
2022/10/29 16:14:46;;;;;;;4.07;3.60;;;21.30;99.70;;;;;;5046672;28;20502;-67
2022/10/29 16:17:14;;;;;;;10.97;3.93;;;21.20;99.90;;;;;;5047505;28;20221;-67
2022/10/29 16:19:40;;;;;;;2.93;2.73;;;21.10;99.90;;;;;;5046855;28;20162;-68
2022/10/29 16:22:24;;;;;;;4.83;3.63;;;21.00;99.90;;;;;;5049323;28;20519;-68
2022/10/29 16:24:50;;;;;;;6.37;4.37;;;21.00;99.90;;;;;;5046439;28;20280;-69
2022/10/29 16:27:17;;;;;;;4.57;3.40;;;20.90;99.90;;;;;;5047069;28;20633;-70
2022/10/29 16:29:45;;;;;;;6.47;4.33;;;20.80;99.90;;;;;;5032227;28;20205;-65
2022/10/29 16:32:20;;;;;;;6.20;4.20;;;20.80;99.90;;;;;;5046749;28;20415;-67
2022/10/29 16:34:46;;;;;;;7.30;3.20;;;20.80;99.90;;;;;;5046598;28;20471;-66
2022/10/29 16:37:14;;;;;;;5.43;4.20;;;20.70;99.90;;;;;;5046774;28;20452;-67
2022/10/29 16:39:40;;;;;;;7.23;4.50;;;20.70;99.90;;;;;;5046283;28;20411;-66
2022/10/29 16:42:06;;;;;;;4.43;3.60;;;20.60;99.90;;;;;;5046626;28;20448;-62
2022/10/29 16:44:32;;;;;;;8.50;3.90;;;20.60;99.90;;;;;;5046283;28;20531;-68
2022/10/29 16:46:59;;;;;;;7.73;3.90;;;20.60;99.90;;;;;;5046905;28;20379;-68
2022/10/29 16:49:25;;;;;;;4.00;3.23;;;20.50;99.90;;;;;;5046735;28;20295;-68
2022/10/29 16:51:50;;;;;;;4.33;3.30;;;20.50;99.90;;;;;;5046928;28;20462;-66
2022/10/29 16:54:16;;;;;;;6.60;3.60;;;20.50;99.90;;;;;;5046450;28;20248;-63
2022/10/29 16:56:41;;;;;;;6.20;4.07;;;20.40;99.90;;;;;;5046462;28;20468;-68
2022/10/29 16:59:07;;;;;;;7.47;4.33;;;20.30;99.90;;;;;;5046349;28;20174;-68
2022/10/29 17:01:32;;;;;;;5.20;4.10;;;20.20;99.90;;;;;;5046716;28;20413;-66
2022/10/29 17:03:58;;;;;;;5.70;3.93;;;20.20;99.90;;;;;;5046263;28;20315;-67
2022/10/29 17:06:24;;;;;;;7.40;5.23;;;20.10;99.90;;;;;;5046140;28;20224;-65
2022/10/29 17:08:49;;;;;;;5.73;4.50;;;20.00;99.90;;;;;;5046397;28;20190;-63
2022/10/29 17:11:15;;;;;;;11.80;4.33;;;19.90;99.90;;;;;;5046629;28;20217;-64
2022/10/29 17:13:40;;;;;;;7.17;4.60;;;19.90;99.90;;;;;;5046107;28;20193;-65
2022/10/29 17:16:15;;;;;;;5.20;3.50;;;19.80;99.90;;;;;;5046040;28;20194;-66